createdAt,value
2019-03-29T00:01:36.101Z,12.70
2019-03-29T00:04:06.433Z,12.70
2019-03-29T00:06:37.285Z,12.70
2019-03-29T00:09:08.297Z,12.70
2019-03-29T00:11:38.960Z,12.70
2019-03-29T00:14:09.185Z,12.70
2019-03-29T00:16:39.267Z,12.70
2019-03-29T00:19:09.784Z,12.60
2019-03-29T00:21:39.858Z,12.60
2019-03-29T00:24:10.006Z,12.60
2019-03-29T00:26:40.328Z,12.60
2019-03-29T00:29:10.402Z,12.60
2019-03-29T00:31:40.473Z,12.60
2019-03-29T00:34:10.575Z,12.60
2019-03-29T00:36:41.020Z,12.60
2019-03-29T00:39:11.447Z,12.60
2019-03-29T00:41:41.875Z,12.60
2019-03-29T00:44:11.956Z,12.60
2019-03-29T00:46:42.043Z,12.60
2019-03-29T00:49:12.128Z,12.60
2019-03-29T00:51:42.238Z,12.60
2019-03-29T00:54:12.458Z,12.60
2019-03-29T00:56:42.542Z,12.60
2019-03-29T00:59:12.694Z,12.60
2019-03-29T01:01:42.780Z,12.60
2019-03-29T01:04:13.193Z,12.60
2019-03-29T01:06:43.336Z,12.60
2019-03-29T01:09:13.518Z,12.60
2019-03-29T01:11:43.653Z,12.60
2019-03-29T01:14:13.828Z,12.60
2019-03-29T01:22:09.159Z,12.60
2019-03-29T01:24:39.222Z,12.60
2019-03-29T01:27:09.300Z,12.50
2019-03-29T01:29:39.442Z,12.50
2019-03-29T01:32:09.527Z,12.50
2019-03-29T01:34:39.615Z,12.50
2019-03-29T01:37:10.043Z,12.50
2019-03-29T01:39:40.146Z,12.50
2019-03-29T01:42:10.303Z,12.50
2019-03-29T01:44:40.675Z,12.50
2019-03-29T01:47:10.746Z,12.50
2019-03-29T01:49:41.868Z,12.50
2019-03-29T01:52:12.362Z,12.50
2019-03-29T01:54:42.474Z,12.50
2019-03-29T01:57:12.567Z,12.40
2019-03-29T01:59:43.000Z,12.40
2019-03-29T02:02:13.166Z,12.40
2019-03-29T02:05:11.832Z,12.40
2019-03-29T02:07:41.889Z,12.40
2019-03-29T02:10:11.990Z,12.40
2019-03-29T02:12:42.407Z,12.30
2019-03-29T02:15:12.502Z,12.40
2019-03-29T02:17:42.592Z,12.40
2019-03-29T02:20:13.046Z,12.40
2019-03-29T02:22:43.110Z,12.40
2019-03-29T02:25:13.246Z,12.40
2019-03-29T02:27:43.340Z,12.30
2019-03-29T02:30:13.401Z,12.30
2019-03-29T02:32:43.492Z,12.40
2019-03-29T02:35:18.805Z,12.40
2019-03-29T02:37:48.877Z,12.40
2019-03-29T02:40:18.966Z,12.40
2019-03-29T02:42:49.104Z,12.40
2019-03-29T02:45:19.170Z,12.40
2019-03-29T02:47:50.287Z,12.40
2019-03-29T02:50:20.394Z,12.40
2019-03-29T02:52:50.784Z,12.30
2019-03-29T02:55:20.867Z,12.40
2019-03-29T02:57:54.310Z,12.40
2019-03-29T03:00:24.445Z,12.40
2019-03-29T03:02:54.810Z,12.40
2019-03-29T03:05:24.974Z,12.30
2019-03-29T03:07:55.060Z,12.30
2019-03-29T03:10:25.262Z,12.30
2019-03-29T03:12:55.405Z,12.20
2019-03-29T03:15:25.578Z,12.20
2019-03-29T03:17:55.659Z,12.20
2019-03-29T03:20:25.779Z,12.20
2019-03-29T03:22:55.972Z,12.20
2019-03-29T03:25:26.165Z,12.20
2019-03-29T03:30:32.498Z,12.20
2019-03-29T03:33:02.640Z,12.20
2019-03-29T03:35:32.774Z,12.20
2019-03-29T03:38:02.927Z,12.20
2019-03-29T03:40:32.984Z,12.20
2019-03-29T03:43:03.047Z,12.20
2019-03-29T03:45:33.106Z,12.20
2019-03-29T03:48:03.244Z,12.20
2019-03-29T03:50:39.152Z,12.20
2019-03-29T03:53:10.881Z,12.20
2019-03-29T03:55:41.694Z,12.20
2019-03-29T03:58:12.915Z,12.20
2019-03-29T04:00:54.013Z,12.10
2019-03-29T04:03:24.679Z,12.10
2019-03-29T04:05:54.769Z,12.10
2019-03-29T04:08:26.027Z,12.10
2019-03-29T04:10:56.291Z,12.10
2019-03-29T04:13:26.634Z,12.10
2019-03-29T04:15:56.830Z,12.10
2019-03-29T04:18:27.018Z,12.10
2019-03-29T04:20:57.450Z,12.10
2019-03-29T04:23:27.833Z,12.10
2019-03-29T04:25:57.947Z,12.10
2019-03-29T04:28:28.203Z,12.10
2019-03-29T04:30:58.272Z,12.00
2019-03-29T04:33:29.490Z,12.00
2019-03-29T04:35:59.547Z,12.10
2019-03-29T04:38:29.884Z,12.00
2019-03-29T04:41:01.175Z,12.00
2019-03-29T04:43:31.399Z,12.00
2019-03-29T04:46:01.507Z,12.00
2019-03-29T04:48:32.045Z,12.10
2019-03-29T04:51:02.178Z,12.10
2019-03-29T04:53:32.294Z,12.10
2019-03-29T04:56:04.797Z,12.10
2019-03-29T04:58:34.854Z,12.10
2019-03-29T05:01:04.903Z,12.00
2019-03-29T05:03:35.157Z,12.00
2019-03-29T05:06:05.277Z,12.00
2019-03-29T05:08:35.467Z,12.00
2019-03-29T05:11:05.871Z,12.00
2019-03-29T05:13:35.951Z,12.00
2019-03-29T05:16:06.134Z,12.00
2019-03-29T05:18:36.556Z,12.00
2019-03-29T05:21:06.643Z,12.00
2019-03-29T05:23:36.825Z,12.00
2019-03-29T05:26:07.101Z,11.90
2019-03-29T05:28:37.385Z,12.00
2019-03-29T05:31:07.607Z,12.00
2019-03-29T05:33:38.723Z,12.00
2019-03-29T05:36:08.810Z,12.00
2019-03-29T05:38:39.136Z,12.00
2019-03-29T05:41:09.735Z,12.10
2019-03-29T05:43:40.331Z,12.10
2019-03-29T05:46:10.902Z,12.10
2019-03-29T05:48:41.002Z,12.10
2019-03-29T05:51:11.207Z,12.10
2019-03-29T05:53:41.409Z,12.20
2019-03-29T05:56:11.652Z,12.20
2019-03-29T05:58:42.098Z,12.30
2019-03-29T06:01:12.415Z,12.30
2019-03-29T06:03:42.841Z,12.30
2019-03-29T06:06:12.899Z,12.30
2019-03-29T06:08:43.156Z,12.40
2019-03-29T06:11:13.331Z,12.40
2019-03-29T06:13:43.902Z,12.40
2019-03-29T06:16:14.074Z,12.50
2019-03-29T06:18:44.649Z,12.60
2019-03-29T06:21:14.711Z,12.60
2019-03-29T06:23:45.130Z,12.70
2019-03-29T06:26:15.341Z,12.70
2019-03-29T06:28:45.448Z,12.70
2019-03-29T06:31:15.638Z,12.70
2019-03-29T06:33:45.790Z,12.80
2019-03-29T06:36:16.059Z,12.80
2019-03-29T06:38:46.244Z,12.90
2019-03-29T06:41:17.063Z,12.90
2019-03-29T06:43:47.190Z,13.00
2019-03-29T06:46:17.447Z,13.10
2019-03-29T06:48:47.586Z,13.20
2019-03-29T06:51:17.740Z,13.40
2019-03-29T06:53:47.926Z,13.60
2019-03-29T06:56:18.066Z,13.80
2019-03-29T06:58:49.182Z,14.00
2019-03-29T07:01:19.622Z,14.20
2019-03-29T07:03:49.802Z,14.40
2019-03-29T07:06:19.858Z,14.60
2019-03-29T07:08:49.995Z,14.70
2019-03-29T07:11:20.190Z,14.90
2019-03-29T07:14:03.728Z,15.00
2019-03-29T07:16:33.837Z,15.20
2019-03-29T07:19:05.109Z,15.60
2019-03-29T07:21:35.430Z,16.20
2019-03-29T07:24:05.615Z,17.00
2019-03-29T07:26:35.824Z,18.10
2019-03-29T07:29:06.425Z,19.00
2019-03-29T07:31:36.826Z,19.50
2019-03-29T07:34:07.733Z,19.70
2019-03-29T07:36:38.543Z,19.60
2019-03-29T07:39:09.689Z,19.50
2019-03-29T07:41:40.319Z,19.50
2019-03-29T07:44:10.950Z,19.90
2019-03-29T07:46:41.377Z,20.40
2019-03-29T07:49:12.106Z,21.00
2019-03-29T07:51:42.773Z,21.70
2019-03-29T07:54:13.601Z,22.50
2019-03-29T07:56:44.411Z,23.40
2019-03-29T07:59:15.213Z,24.30
2019-03-29T08:01:45.823Z,25.10
2019-03-29T08:04:16.397Z,25.80
2019-03-29T08:06:47.055Z,26.50
2019-03-29T08:09:22.489Z,27.10
2019-03-29T08:11:50.251Z,27.70
2019-03-29T08:14:21.103Z,28.00
2019-03-29T08:16:51.504Z,28.00
2019-03-29T08:19:21.936Z,28.00
2019-03-29T08:21:52.468Z,28.20
2019-03-29T08:24:23.810Z,28.50
2019-03-29T08:26:54.656Z,28.80
2019-03-29T08:29:26.161Z,29.10
2019-03-29T08:31:56.693Z,29.40
2019-03-29T08:34:27.365Z,29.60
2019-03-29T08:36:57.934Z,29.90
2019-03-29T08:39:28.919Z,30.20
2019-03-29T08:42:00.593Z,30.50
2019-03-29T08:44:31.796Z,30.80
2019-03-29T08:47:02.747Z,31.10
2019-03-29T08:49:33.612Z,31.40
2019-03-29T08:52:04.175Z,31.70
2019-03-29T08:54:35.114Z,32.00
2019-03-29T08:57:05.624Z,32.10
2019-03-29T08:59:36.087Z,32.40
2019-03-29T09:02:06.637Z,32.70
2019-03-29T09:04:37.298Z,32.90
2019-03-29T09:07:08.788Z,33.20
2019-03-29T09:09:39.680Z,33.30
2019-03-29T09:12:14.732Z,33.20
2019-03-29T09:14:43.017Z,33.30
2019-03-29T09:17:13.966Z,33.40
2019-03-29T09:19:44.437Z,33.60
2019-03-29T09:22:14.992Z,33.70
2019-03-29T09:24:47.271Z,33.70
2019-03-29T09:27:18.345Z,33.70
2019-03-29T09:29:48.988Z,33.50
2019-03-29T09:32:19.635Z,33.40
2019-03-29T09:34:50.054Z,33.30
2019-03-29T09:37:20.518Z,33.20
2019-03-29T09:39:51.249Z,33.20
2019-03-29T09:42:28.722Z,33.20
2019-03-29T09:44:54.582Z,33.30
2019-03-29T09:47:25.076Z,33.40
2019-03-29T09:49:55.614Z,33.50
2019-03-29T09:52:26.318Z,33.70
2019-03-29T09:54:56.975Z,33.80
2019-03-29T09:57:37.142Z,33.90
2019-03-29T10:00:00.033Z,34.00
2019-03-29T10:02:30.569Z,33.90
2019-03-29T10:05:01.316Z,33.90
2019-03-29T10:07:31.823Z,33.90
2019-03-29T10:10:02.526Z,33.90
2019-03-29T10:12:43.255Z,33.80
2019-03-29T10:15:05.918Z,33.90
2019-03-29T10:17:36.464Z,34.00
2019-03-29T10:20:07.639Z,34.00
2019-03-29T10:22:40.978Z,34.00
2019-03-29T10:25:19.347Z,33.90
2019-03-29T10:27:44.061Z,33.70
2019-03-29T10:31:10.609Z,33.50
2019-03-29T10:33:41.265Z,33.40
2019-03-29T10:36:11.746Z,33.30
2019-03-29T10:38:42.488Z,33.30
2019-03-29T10:41:13.253Z,33.30
2019-03-29T10:43:43.907Z,33.30
2019-03-29T10:46:14.575Z,33.30
2019-03-29T10:48:45.115Z,33.30
2019-03-29T10:51:15.847Z,33.30
2019-03-29T10:53:46.525Z,33.10
2019-03-29T10:56:17.085Z,33.10
2019-03-29T10:58:48.157Z,33.00
2019-03-29T11:01:18.734Z,32.90
2019-03-29T11:03:49.366Z,32.60
2019-03-29T11:06:20.550Z,32.40
2019-03-29T11:08:51.220Z,32.10
2019-03-29T11:11:21.795Z,31.80
2019-03-29T11:13:52.542Z,31.50
2019-03-29T11:16:25.478Z,31.30
2019-03-29T11:18:56.558Z,31.10
2019-03-29T11:21:27.014Z,31.00
2019-03-29T11:23:57.779Z,30.70
2019-03-29T11:26:28.481Z,30.60
2019-03-29T11:28:59.123Z,30.50
2019-03-29T11:31:29.525Z,30.40
2019-03-29T11:34:00.127Z,30.20
2019-03-29T11:36:30.931Z,30.00
2019-03-29T11:39:01.947Z,29.70
2019-03-29T11:41:34.317Z,29.60
2019-03-29T11:44:04.998Z,29.60
2019-03-29T11:46:35.867Z,29.60
2019-03-29T11:49:06.425Z,29.60
2019-03-29T11:51:37.585Z,29.40
2019-03-29T11:54:08.682Z,29.20
2019-03-29T11:56:39.339Z,29.00
2019-03-29T11:59:10.179Z,28.90
2019-03-29T12:01:40.631Z,28.90
2019-03-29T12:04:11.270Z,28.90
2019-03-29T12:06:44.206Z,28.90
2019-03-29T12:09:14.916Z,28.90
2019-03-29T12:11:45.742Z,28.90
2019-03-29T12:14:16.491Z,28.90
2019-03-29T12:16:47.198Z,28.80
2019-03-29T12:19:18.279Z,28.80
2019-03-29T12:21:49.426Z,28.80
2019-03-29T12:24:21.297Z,28.60
2019-03-29T12:26:55.017Z,28.50
2019-03-29T12:29:24.927Z,28.20
2019-03-29T12:31:56.808Z,28.00
2019-03-29T12:34:27.787Z,27.70
2019-03-29T12:36:59.044Z,27.40
2019-03-29T12:39:30.104Z,27.30
2019-03-29T12:42:00.971Z,27.10
2019-03-29T12:44:33.241Z,27.00
2019-03-29T12:47:04.478Z,26.90
2019-03-29T12:49:35.258Z,26.80
2019-03-29T12:52:06.030Z,26.70
2019-03-29T12:54:36.834Z,26.60
2019-03-29T12:57:10.660Z,26.50
2019-03-29T12:59:41.204Z,26.30
2019-03-29T13:02:12.254Z,26.10
2019-03-29T13:04:43.062Z,26.00
2019-03-29T13:07:13.736Z,25.90
2019-03-29T13:09:45.080Z,25.90
2019-03-29T13:12:16.062Z,25.80
2019-03-29T13:14:46.873Z,25.70
2019-03-29T13:17:18.369Z,25.70
2019-03-29T13:19:49.131Z,25.60
2019-03-29T13:22:20.540Z,25.50
2019-03-29T13:24:51.322Z,25.50
2019-03-29T13:27:22.064Z,25.40
2019-03-29T13:29:52.722Z,25.30
2019-03-29T13:32:23.486Z,25.20
2019-03-29T13:34:54.169Z,25.20
2019-03-29T13:37:26.043Z,25.00
2019-03-29T13:39:56.951Z,25.00
2019-03-29T13:42:29.172Z,24.90
2019-03-29T13:44:59.853Z,24.80
2019-03-29T13:47:31.134Z,24.70
2019-03-29T13:50:02.399Z,24.60
2019-03-29T13:52:33.669Z,24.60
2019-03-29T13:55:04.852Z,24.50
2019-03-29T13:57:35.696Z,24.40
2019-03-29T14:00:09.867Z,24.30
2019-03-29T14:02:41.560Z,24.20
2019-03-29T14:05:12.513Z,24.10
2019-03-29T14:07:43.221Z,24.10
2019-03-29T14:10:13.957Z,24.00
2019-03-29T14:12:44.551Z,23.90
2019-03-29T14:15:15.130Z,23.70
2019-03-29T14:17:46.057Z,23.70
2019-03-29T14:20:24.023Z,23.60
2019-03-29T14:22:54.493Z,23.50
2019-03-29T14:25:25.124Z,23.40
2019-03-29T14:27:56.419Z,23.30
2019-03-29T14:30:27.297Z,23.20
2019-03-29T14:32:58.406Z,23.10
2019-03-29T14:35:29.299Z,23.10
2019-03-29T14:38:00.536Z,23.00
2019-03-29T14:40:31.653Z,22.90
2019-03-29T14:43:02.652Z,22.90
2019-03-29T14:45:33.717Z,22.80
2019-03-29T14:48:06.308Z,22.70
2019-03-29T14:50:37.532Z,22.70
2019-03-29T14:53:08.712Z,22.60
2019-03-29T14:55:40.053Z,22.50
2019-03-29T14:58:11.848Z,22.50
2019-03-29T15:00:48.547Z,22.40
2019-03-29T15:03:22.472Z,22.30
2019-03-29T15:05:53.136Z,22.30
2019-03-29T15:08:24.671Z,22.20
2019-03-29T15:10:56.997Z,22.20
2019-03-29T15:13:28.603Z,22.20
2019-03-29T15:15:59.815Z,22.10
2019-03-29T15:18:31.085Z,22.10
2019-03-29T15:21:03.091Z,22.10
2019-03-29T15:23:34.363Z,22.10
2019-03-29T15:26:05.423Z,22.10
2019-03-29T15:28:38.035Z,22.10
2019-03-29T15:31:10.035Z,22.10
2019-03-29T15:33:41.105Z,22.10
2019-03-29T15:36:13.232Z,22.10
2019-03-29T15:38:44.980Z,22.10
2019-03-29T15:41:20.403Z,22.10
2019-03-29T15:44:05.010Z,22.10
2019-03-29T15:46:35.543Z,22.10
2019-03-29T15:49:06.731Z,22.10
2019-03-29T15:51:38.387Z,22.10
2019-03-29T15:54:09.316Z,22.00
2019-03-29T15:56:41.300Z,22.00
2019-03-29T15:59:12.552Z,22.00
2019-03-29T16:01:43.463Z,21.90
2019-03-29T16:04:15.459Z,21.90
2019-03-29T16:06:46.126Z,21.80
2019-03-29T16:09:17.193Z,21.70
2019-03-29T16:11:48.400Z,21.70
2019-03-29T16:14:19.224Z,21.60
2019-03-29T16:16:49.973Z,21.50
2019-03-29T16:19:20.947Z,21.50
2019-03-29T16:21:51.644Z,21.40
2019-03-29T16:24:22.291Z,21.30
2019-03-29T16:26:53.101Z,21.40
2019-03-29T16:29:23.634Z,21.30
2019-03-29T16:31:54.766Z,21.30
2019-03-29T16:34:25.899Z,21.30
2019-03-29T16:36:57.460Z,21.20
2019-03-29T16:39:28.146Z,21.20
2019-03-29T16:41:59.212Z,21.20
2019-03-29T16:44:29.913Z,21.10
2019-03-29T16:47:00.706Z,21.10
2019-03-29T16:49:33.577Z,21.10
2019-03-29T16:52:12.012Z,21.00
2019-03-29T16:54:44.099Z,21.00
2019-03-29T16:57:16.064Z,20.90
2019-03-29T16:59:47.125Z,20.90
2019-03-29T17:02:17.731Z,20.90
2019-03-29T17:04:48.372Z,20.90
2019-03-29T17:07:18.994Z,20.80
2019-03-29T17:09:49.706Z,20.80
2019-03-29T17:12:20.669Z,20.70
2019-03-29T17:14:51.360Z,20.60
2019-03-29T17:17:22.022Z,20.60
2019-03-29T17:19:52.603Z,20.50
2019-03-29T17:22:23.486Z,20.40
2019-03-29T17:24:57.296Z,20.40
2019-03-29T17:27:26.525Z,20.30
2019-03-29T17:29:57.386Z,20.20
2019-03-29T17:32:28.175Z,20.20
2019-03-29T17:34:58.874Z,20.10
2019-03-29T17:37:29.454Z,20.00
2019-03-29T17:40:00.041Z,20.00
2019-03-29T17:42:33.157Z,19.90
2019-03-29T17:45:04.195Z,19.80
2019-03-29T17:47:34.826Z,19.70
2019-03-29T17:50:05.526Z,19.60
2019-03-29T17:52:37.758Z,19.60
2019-03-29T17:55:08.353Z,19.50
2019-03-29T17:57:39.117Z,19.40
2019-03-29T18:00:09.993Z,19.40
2019-03-29T18:02:44.080Z,19.30
2019-03-29T18:05:15.281Z,19.20
2019-03-29T18:07:45.938Z,19.10
2019-03-29T18:10:16.493Z,19.00
2019-03-29T18:12:47.374Z,18.90
2019-03-29T18:15:18.989Z,18.90
2019-03-29T18:17:49.704Z,18.80
2019-03-29T18:20:20.437Z,18.70
2019-03-29T18:22:50.939Z,18.70
2019-03-29T18:25:21.775Z,18.60
2019-03-29T18:27:53.395Z,18.50
2019-03-29T18:30:35.249Z,18.40
2019-03-29T18:33:06.110Z,18.40
2019-03-29T18:35:36.945Z,18.40
2019-03-29T18:38:07.674Z,18.30
2019-03-29T18:40:38.707Z,18.20
2019-03-29T18:43:09.148Z,18.20
2019-03-29T18:45:41.647Z,18.10
2019-03-29T18:48:12.117Z,18.00
2019-03-29T18:50:42.897Z,18.00
2019-03-29T18:53:13.786Z,17.90
2019-03-29T18:55:44.941Z,17.90
2019-03-29T18:58:15.564Z,17.80
2019-03-29T19:00:46.623Z,17.70
2019-03-29T19:03:17.188Z,17.70
2019-03-29T19:05:48.118Z,17.60
2019-03-29T19:08:18.728Z,17.50
2019-03-29T19:10:49.820Z,17.40
2019-03-29T19:13:20.494Z,17.40
2019-03-29T19:15:51.570Z,17.30
2019-03-29T19:18:22.243Z,17.30
2019-03-29T19:20:52.958Z,17.20
2019-03-29T19:23:23.482Z,17.10
2019-03-29T19:25:54.388Z,17.10
2019-03-29T19:28:25.049Z,17.00
2019-03-29T19:30:55.919Z,16.90
2019-03-29T19:33:26.574Z,16.90
2019-03-29T19:35:58.514Z,16.80
2019-03-29T19:38:29.124Z,16.70
2019-03-29T19:40:59.942Z,16.60
2019-03-29T19:43:31.585Z,16.50
2019-03-29T19:46:02.450Z,16.40
2019-03-29T19:48:33.079Z,16.40
2019-03-29T19:51:04.306Z,16.30
2019-03-29T19:53:35.394Z,16.30
2019-03-29T19:56:06.132Z,16.20
2019-03-29T19:58:36.968Z,16.20
2019-03-29T20:01:07.490Z,16.10
2019-03-29T20:03:39.475Z,16.10
2019-03-29T20:06:10.515Z,16.00
2019-03-29T20:08:41.579Z,16.00
2019-03-29T20:11:12.128Z,15.90
2019-03-29T20:13:45.941Z,15.90
2019-03-29T20:16:16.636Z,15.80
2019-03-29T20:18:47.196Z,15.80
2019-03-29T20:21:18.398Z,15.70
2019-03-29T20:23:49.216Z,15.70
2019-03-29T20:26:19.868Z,15.60
2019-03-29T20:28:50.638Z,15.50
2019-03-29T20:31:21.409Z,15.50
2019-03-29T20:33:52.196Z,15.40
2019-03-29T20:36:23.420Z,15.40
2019-03-29T20:38:54.346Z,15.30
2019-03-29T20:41:25.740Z,15.30
2019-03-29T20:44:10.900Z,15.30
2019-03-29T20:46:51.511Z,15.20
2019-03-29T20:49:22.229Z,15.20
2019-03-29T20:51:53.633Z,15.10
2019-03-29T20:54:24.424Z,15.10
2019-03-29T20:56:55.563Z,15.00
2019-03-29T20:59:29.024Z,15.00
2019-03-29T21:01:59.978Z,14.90
2019-03-29T21:04:30.653Z,14.90
2019-03-29T21:07:01.344Z,14.90
2019-03-29T21:09:32.228Z,14.80
2019-03-29T21:12:05.246Z,14.80
2019-03-29T21:14:38.763Z,14.70
2019-03-29T21:17:10.805Z,14.70
2019-03-29T21:19:41.456Z,14.60
2019-03-29T21:22:12.205Z,14.50
2019-03-29T21:24:42.839Z,14.40
2019-03-29T21:27:13.644Z,14.40
2019-03-29T21:29:44.914Z,14.30
2019-03-29T21:32:15.950Z,14.20
2019-03-29T21:34:46.811Z,14.10
2019-03-29T21:37:17.409Z,14.10
2019-03-29T21:39:48.210Z,14.00
2019-03-29T21:42:18.894Z,14.00
2019-03-29T21:44:50.705Z,13.90
2019-03-29T21:47:22.522Z,13.90
2019-03-29T21:49:53.922Z,13.90
2019-03-29T21:52:24.586Z,13.90
2019-03-29T21:54:55.771Z,13.80
2019-03-29T21:57:26.946Z,13.80
2019-03-29T21:59:58.139Z,13.80
2019-03-29T22:02:29.851Z,13.70
2019-03-29T22:05:00.618Z,13.70
2019-03-29T22:07:31.899Z,13.60
2019-03-29T22:10:02.560Z,13.60
2019-03-29T22:12:33.225Z,13.60
2019-03-29T22:15:04.898Z,13.50
2019-03-29T22:17:35.784Z,13.50
2019-03-29T22:20:08.175Z,13.40
2019-03-29T22:22:39.068Z,13.40
2019-03-29T22:25:09.856Z,13.30
2019-03-29T22:27:40.449Z,13.20
2019-03-29T22:30:11.186Z,13.10
2019-03-29T22:32:42.145Z,13.10
2019-03-29T22:35:12.963Z,13.00
2019-03-29T22:37:43.794Z,13.00
2019-03-29T22:40:14.825Z,12.90
2019-03-29T22:42:46.479Z,12.90
2019-03-29T22:45:19.020Z,12.90
2019-03-29T22:47:49.855Z,12.80
2019-03-29T22:50:20.743Z,12.80
2019-03-29T22:52:54.666Z,12.70
2019-03-29T22:55:26.102Z,12.70
2019-03-29T22:57:56.702Z,12.70
2019-03-29T23:00:36.815Z,12.60
2019-03-29T23:03:09.405Z,12.60
2019-03-29T23:05:39.994Z,12.50
2019-03-29T23:08:11.165Z,12.50
2019-03-29T23:10:42.202Z,12.40
2019-03-29T23:13:12.956Z,12.30
2019-03-29T23:15:43.897Z,12.30
2019-03-29T23:18:14.631Z,12.20
2019-03-29T23:20:45.528Z,12.10
2019-03-29T23:23:16.203Z,12.10
2019-03-29T23:25:47.497Z,12.10
2019-03-29T23:28:18.152Z,12.00
2019-03-29T23:30:48.784Z,12.00
2019-03-29T23:33:20.823Z,12.00
2019-03-29T23:35:51.710Z,12.00
2019-03-29T23:38:23.057Z,11.90
2019-03-29T23:40:54.634Z,11.90
2019-03-29T23:43:26.570Z,11.80
2019-03-29T23:45:57.999Z,11.80
2019-03-29T23:48:28.832Z,11.70
2019-03-29T23:51:00.204Z,11.70
2019-03-29T23:53:31.074Z,11.60
2019-03-29T23:56:02.599Z,11.60
2019-03-29T23:58:33.253Z,11.50
